sensor_id;sensor_type;location;lat;lon;timestamp;P1;durP1;ratioP1;P2;durP2;ratioP2
59418;SDS011;45224;50.904;6.038;2023-09-07T00:00:05;5.13;;;3.80;;
59418;SDS011;45224;50.904;6.038;2023-09-07T00:01:42;9.40;;;3.72;;
59418;SDS011;45224;50.904;6.038;2023-09-07T00:03:13;5.38;;;3.97;;
59418;SDS011;45224;50.904;6.038;2023-09-07T00:04:44;5.68;;;3.67;;
59418;SDS011;45224;50.904;6.038;2023-09-07T00:06:15;6.28;;;3.63;;
59418;SDS011;45224;50.904;6.038;2023-09-07T00:07:45;7.65;;;3.92;;
59418;SDS011;45224;50.904;6.038;2023-09-07T00:09:16;5.25;;;3.58;;
59418;SDS011;45224;50.904;6.038;2023-09-07T00:10:48;7.35;;;3.33;;
59418;SDS011;45224;50.904;6.038;2023-09-07T00:12:18;5.75;;;3.75;;
59418;SDS011;45224;50.904;6.038;2023-09-07T00:13:49;6.25;;;3.72;;
59418;SDS011;45224;50.904;6.038;2023-09-07T00:15:21;6.53;;;3.75;;
59418;SDS011;45224;50.904;6.038;2023-09-07T00:16:51;5.75;;;3.75;;
59418;SDS011;45224;50.904;6.038;2023-09-07T00:18:22;4.78;;;3.30;;
59418;SDS011;45224;50.904;6.038;2023-09-07T00:19:52;5.70;;;3.92;;
59418;SDS011;45224;50.904;6.038;2023-09-07T00:21:24;6.47;;;3.67;;
59418;SDS011;45224;50.904;6.038;2023-09-07T00:22:55;6.78;;;3.45;;
59418;SDS011;45224;50.904;6.038;2023-09-07T00:24:25;4.85;;;3.58;;
59418;SDS011;45224;50.904;6.038;2023-09-07T00:25:56;5.40;;;3.92;;
59418;SDS011;45224;50.904;6.038;2023-09-07T00:27:26;4.55;;;3.55;;
59418;SDS011;45224;50.904;6.038;2023-09-07T00:28:57;5.80;;;3.55;;
59418;SDS011;45224;50.904;6.038;2023-09-07T00:30:28;5.10;;;3.80;;
59418;SDS011;45224;50.904;6.038;2023-09-07T00:31:58;5.63;;;3.85;;
59418;SDS011;45224;50.904;6.038;2023-09-07T00:33:29;5.93;;;3.72;;
59418;SDS011;45224;50.904;6.038;2023-09-07T00:34:59;5.90;;;3.90;;
59418;SDS011;45224;50.904;6.038;2023-09-07T00:36:30;5.70;;;3.78;;
59418;SDS011;45224;50.904;6.038;2023-09-07T00:38:00;5.15;;;3.60;;
59418;SDS011;45224;50.904;6.038;2023-09-07T00:39:31;6.40;;;3.65;;
59418;SDS011;45224;50.904;6.038;2023-09-07T00:41:01;5.20;;;3.80;;
59418;SDS011;45224;50.904;6.038;2023-09-07T00:42:32;6.22;;;3.70;;
59418;SDS011;45224;50.904;6.038;2023-09-07T00:44:03;7.03;;;3.60;;
59418;SDS011;45224;50.904;6.038;2023-09-07T00:45:34;5.70;;;3.60;;
59418;SDS011;45224;50.904;6.038;2023-09-07T00:47:04;6.35;;;3.92;;
59418;SDS011;45224;50.904;6.038;2023-09-07T00:48:35;5.32;;;3.67;;
59418;SDS011;45224;50.904;6.038;2023-09-07T00:50:06;5.03;;;3.83;;
59418;SDS011;45224;50.904;6.038;2023-09-07T00:51:38;7.18;;;3.70;;
59418;SDS011;45224;50.904;6.038;2023-09-07T00:53:10;5.50;;;3.72;;
59418;SDS011;45224;50.904;6.038;2023-09-07T00:54:41;5.30;;;3.30;;
59418;SDS011;45224;50.904;6.038;2023-09-07T00:56:12;5.82;;;3.42;;
59418;SDS011;45224;50.904;6.038;2023-09-07T00:57:44;4.40;;;3.35;;
59418;SDS011;45224;50.904;6.038;2023-09-07T00:59:14;5.43;;;3.30;;
59418;SDS011;45224;50.904;6.038;2023-09-07T01:00:45;7.00;;;3.22;;
59418;SDS011;45224;50.904;6.038;2023-09-07T01:02:17;4.90;;;3.33;;
59418;SDS011;45224;50.904;6.038;2023-09-07T01:03:48;5.50;;;3.60;;
59418;SDS011;45224;50.904;6.038;2023-09-07T01:05:19;5.50;;;3.30;;
59418;SDS011;45224;50.904;6.038;2023-09-07T01:07:00;5.22;;;3.60;;
59418;SDS011;45224;50.904;6.038;2023-09-07T01:08:33;4.90;;;3.20;;
59418;SDS011;45224;50.904;6.038;2023-09-07T01:10:09;4.88;;;3.28;;
59418;SDS011;45224;50.904;6.038;2023-09-07T01:11:40;4.57;;;3.50;;
59418;SDS011;45224;50.904;6.038;2023-09-07T01:13:10;5.40;;;3.53;;
59418;SDS011;45224;50.904;6.038;2023-09-07T01:14:41;4.10;;;3.38;;
59418;SDS011;45224;50.904;6.038;2023-09-07T01:16:12;5.85;;;3.30;;
59418;SDS011;45224;50.904;6.038;2023-09-07T01:17:43;4.80;;;3.70;;
59418;SDS011;45224;50.904;6.038;2023-09-07T01:19:15;5.97;;;3.30;;
59418;SDS011;45224;50.904;6.038;2023-09-07T01:20:46;6.00;;;3.15;;
59418;SDS011;45224;50.904;6.038;2023-09-07T01:22:18;5.22;;;3.40;;
59418;SDS011;45224;50.904;6.038;2023-09-07T01:23:53;5.63;;;3.63;;
59418;SDS011;45224;50.904;6.038;2023-09-07T01:25:25;5.10;;;3.25;;
59418;SDS011;45224;50.904;6.038;2023-09-07T01:26:57;4.43;;;3.38;;
59418;SDS011;45224;50.904;6.038;2023-09-07T01:28:28;4.88;;;2.95;;
59418;SDS011;45224;50.904;6.038;2023-09-07T01:29:59;7.95;;;3.40;;
59418;SDS011;45224;50.904;6.038;2023-09-07T01:31:29;4.43;;;3.00;;
59418;SDS011;45224;50.904;6.038;2023-09-07T01:33:00;4.20;;;3.05;;
59418;SDS011;45224;50.904;6.038;2023-09-07T01:34:30;5.68;;;3.20;;
59418;SDS011;45224;50.904;6.038;2023-09-07T01:36:01;5.30;;;3.50;;
59418;SDS011;45224;50.904;6.038;2023-09-07T01:37:33;4.05;;;3.20;;
59418;SDS011;45224;50.904;6.038;2023-09-07T01:39:04;5.20;;;3.33;;
59418;SDS011;45224;50.904;6.038;2023-09-07T01:40:38;4.32;;;2.85;;
59418;SDS011;45224;50.904;6.038;2023-09-07T01:42:08;4.28;;;3.17;;
59418;SDS011;45224;50.904;6.038;2023-09-07T01:43:39;5.80;;;3.33;;
59418;SDS011;45224;50.904;6.038;2023-09-07T01:45:09;4.53;;;3.17;;
59418;SDS011;45224;50.904;6.038;2023-09-07T01:46:40;5.43;;;3.58;;
59418;SDS011;45224;50.904;6.038;2023-09-07T01:48:11;4.53;;;3.13;;
59418;SDS011;45224;50.904;6.038;2023-09-07T01:49:43;5.63;;;3.28;;
59418;SDS011;45224;50.904;6.038;2023-09-07T01:51:13;6.07;;;3.45;;
59418;SDS011;45224;50.904;6.038;2023-09-07T01:52:48;5.20;;;3.40;;
59418;SDS011;45224;50.904;6.038;2023-09-07T01:54:20;4.78;;;2.92;;
59418;SDS011;45224;50.904;6.038;2023-09-07T01:55:53;4.47;;;3.10;;
59418;SDS011;45224;50.904;6.038;2023-09-07T01:57:25;4.43;;;3.25;;
59418;SDS011;45224;50.904;6.038;2023-09-07T01:58:56;4.50;;;3.17;;
59418;SDS011;45224;50.904;6.038;2023-09-07T02:00:27;5.85;;;3.40;;
59418;SDS011;45224;50.904;6.038;2023-09-07T02:01:57;5.53;;;3.58;;
59418;SDS011;45224;50.904;6.038;2023-09-07T02:03:28;4.80;;;3.50;;
59418;SDS011;45224;50.904;6.038;2023-09-07T02:04:59;5.03;;;3.17;;
59418;SDS011;45224;50.904;6.038;2023-09-07T02:06:29;8.48;;;3.70;;
59418;SDS011;45224;50.904;6.038;2023-09-07T02:08:00;4.97;;;3.42;;
59418;SDS011;45224;50.904;6.038;2023-09-07T02:09:30;8.68;;;3.53;;
59418;SDS011;45224;50.904;6.038;2023-09-07T02:11:01;5.57;;;3.10;;
59418;SDS011;45224;50.904;6.038;2023-09-07T02:12:32;5.75;;;3.55;;
59418;SDS011;45224;50.904;6.038;2023-09-07T02:14:03;4.65;;;3.05;;
59418;SDS011;45224;50.904;6.038;2023-09-07T02:15:36;5.88;;;3.83;;
59418;SDS011;45224;50.904;6.038;2023-09-07T02:17:11;5.15;;;3.28;;
59418;SDS011;45224;50.904;6.038;2023-09-07T02:18:44;5.72;;;3.47;;
59418;SDS011;45224;50.904;6.038;2023-09-07T02:20:17;5.13;;;3.28;;
59418;SDS011;45224;50.904;6.038;2023-09-07T02:21:49;5.22;;;3.58;;
59418;SDS011;45224;50.904;6.038;2023-09-07T02:23:21;6.60;;;3.88;;
59418;SDS011;45224;50.904;6.038;2023-09-07T02:24:52;5.53;;;3.63;;
59418;SDS011;45224;50.904;6.038;2023-09-07T02:26:22;5.60;;;3.63;;
59418;SDS011;45224;50.904;6.038;2023-09-07T02:27:53;5.72;;;3.60;;
59418;SDS011;45224;50.904;6.038;2023-09-07T02:29:23;7.35;;;3.70;;
59418;SDS011;45224;50.904;6.038;2023-09-07T02:30:54;6.95;;;4.35;;
59418;SDS011;45224;50.904;6.038;2023-09-07T02:32:25;6.30;;;3.47;;
59418;SDS011;45224;50.904;6.038;2023-09-07T02:33:55;6.82;;;4.20;;
59418;SDS011;45224;50.904;6.038;2023-09-07T02:35:26;7.05;;;4.20;;
59418;SDS011;45224;50.904;6.038;2023-09-07T02:36:56;8.38;;;4.47;;
59418;SDS011;45224;50.904;6.038;2023-09-07T02:38:27;9.65;;;4.82;;
59418;SDS011;45224;50.904;6.038;2023-09-07T02:39:58;8.95;;;4.82;;
59418;SDS011;45224;50.904;6.038;2023-09-07T02:41:30;12.73;;;5.00;;
59418;SDS011;45224;50.904;6.038;2023-09-07T02:43:01;9.25;;;5.00;;
59418;SDS011;45224;50.904;6.038;2023-09-07T02:44:33;10.43;;;5.18;;
59418;SDS011;45224;50.904;6.038;2023-09-07T02:46:05;8.90;;;5.38;;
59418;SDS011;45224;50.904;6.038;2023-09-07T02:47:35;9.48;;;5.38;;
59418;SDS011;45224;50.904;6.038;2023-09-07T02:49:06;12.93;;;5.57;;
59418;SDS011;45224;50.904;6.038;2023-09-07T02:50:36;8.63;;;4.60;;
59418;SDS011;45224;50.904;6.038;2023-09-07T02:52:07;9.70;;;5.53;;
59418;SDS011;45224;50.904;6.038;2023-09-07T02:53:37;10.63;;;5.30;;
59418;SDS011;45224;50.904;6.038;2023-09-07T02:55:08;8.57;;;5.30;;
59418;SDS011;45224;50.904;6.038;2023-09-07T02:56:39;12.50;;;5.68;;
59418;SDS011;45224;50.904;6.038;2023-09-07T02:58:10;12.85;;;5.47;;
59418;SDS011;45224;50.904;6.038;2023-09-07T02:59:40;11.75;;;5.57;;
59418;SDS011;45224;50.904;6.038;2023-09-07T03:01:11;10.02;;;4.82;;
59418;SDS011;45224;50.904;6.038;2023-09-07T03:02:41;8.85;;;5.47;;
59418;SDS011;45224;50.904;6.038;2023-09-07T03:04:12;9.30;;;5.00;;
59418;SDS011;45224;50.904;6.038;2023-09-07T03:05:43;9.07;;;5.20;;
59418;SDS011;45224;50.904;6.038;2023-09-07T03:07:14;10.88;;;5.50;;
59418;SDS011;45224;50.904;6.038;2023-09-07T03:08:44;9.65;;;4.85;;
59418;SDS011;45224;50.904;6.038;2023-09-07T03:10:15;8.90;;;4.75;;
59418;SDS011;45224;50.904;6.038;2023-09-07T03:11:48;8.77;;;5.00;;
59418;SDS011;45224;50.904;6.038;2023-09-07T03:13:19;8.95;;;4.80;;
59418;SDS011;45224;50.904;6.038;2023-09-07T03:14:49;11.65;;;5.32;;
59418;SDS011;45224;50.904;6.038;2023-09-07T03:16:20;9.38;;;4.43;;
59418;SDS011;45224;50.904;6.038;2023-09-07T03:17:51;9.95;;;4.82;;
59418;SDS011;45224;50.904;6.038;2023-09-07T03:19:22;8.18;;;4.63;;
59418;SDS011;45224;50.904;6.038;2023-09-07T03:20:53;8.15;;;4.32;;
59418;SDS011;45224;50.904;6.038;2023-09-07T03:22:28;6.45;;;4.70;;
59418;SDS011;45224;50.904;6.038;2023-09-07T03:23:59;8.65;;;4.43;;
59418;SDS011;45224;50.904;6.038;2023-09-07T03:25:30;9.63;;;4.55;;
59418;SDS011;45224;50.904;6.038;2023-09-07T03:27:01;9.45;;;4.80;;
59418;SDS011;45224;50.904;6.038;2023-09-07T03:28:31;10.05;;;4.65;;
59418;SDS011;45224;50.904;6.038;2023-09-07T03:30:02;6.85;;;4.40;;
59418;SDS011;45224;50.904;6.038;2023-09-07T03:31:35;7.40;;;4.07;;
59418;SDS011;45224;50.904;6.038;2023-09-07T03:33:06;8.68;;;4.40;;
59418;SDS011;45224;50.904;6.038;2023-09-07T03:34:36;7.05;;;4.68;;
59418;SDS011;45224;50.904;6.038;2023-09-07T03:36:07;8.98;;;4.88;;
59418;SDS011;45224;50.904;6.038;2023-09-07T03:37:41;9.68;;;4.57;;
59418;SDS011;45224;50.904;6.038;2023-09-07T03:39:12;10.23;;;4.35;;
59418;SDS011;45224;50.904;6.038;2023-09-07T03:40:43;10.57;;;4.50;;
59418;SDS011;45224;50.904;6.038;2023-09-07T03:42:13;9.23;;;4.25;;
59418;SDS011;45224;50.904;6.038;2023-09-07T03:43:44;7.32;;;4.00;;
59418;SDS011;45224;50.904;6.038;2023-09-07T03:45:15;7.78;;;4.15;;
59418;SDS011;45224;50.904;6.038;2023-09-07T03:46:46;10.77;;;4.13;;
59418;SDS011;45224;50.904;6.038;2023-09-07T03:48:17;8.45;;;4.45;;
59418;SDS011;45224;50.904;6.038;2023-09-07T03:49:48;8.50;;;4.35;;
59418;SDS011;45224;50.904;6.038;2023-09-07T03:51:18;9.98;;;4.20;;
59418;SDS011;45224;50.904;6.038;2023-09-07T03:52:49;7.40;;;4.47;;
59418;SDS011;45224;50.904;6.038;2023-09-07T03:54:19;8.02;;;4.70;;
59418;SDS011;45224;50.904;6.038;2023-09-07T03:55:50;9.10;;;4.40;;
59418;SDS011;45224;50.904;6.038;2023-09-07T03:57:22;7.88;;;4.07;;
59418;SDS011;45224;50.904;6.038;2023-09-07T03:58:53;7.00;;;4.45;;
59418;SDS011;45224;50.904;6.038;2023-09-07T04:00:24;7.20;;;3.90;;
59418;SDS011;45224;50.904;6.038;2023-09-07T04:01:54;7.13;;;4.18;;
59418;SDS011;45224;50.904;6.038;2023-09-07T04:03:25;6.95;;;4.55;;
59418;SDS011;45224;50.904;6.038;2023-09-07T04:04:56;8.43;;;4.35;;
59418;SDS011;45224;50.904;6.038;2023-09-07T04:06:26;7.43;;;4.00;;
59418;SDS011;45224;50.904;6.038;2023-09-07T04:07:56;8.43;;;4.70;;
59418;SDS011;45224;50.904;6.038;2023-09-07T04:09:27;8.32;;;4.63;;
59418;SDS011;45224;50.904;6.038;2023-09-07T04:10:58;7.90;;;4.22;;
59418;SDS011;45224;50.904;6.038;2023-09-07T04:12:33;6.30;;;4.57;;
59418;SDS011;45224;50.904;6.038;2023-09-07T04:14:04;6.07;;;4.20;;
59418;SDS011;45224;50.904;6.038;2023-09-07T04:15:44;8.27;;;4.43;;
59418;SDS011;45224;50.904;6.038;2023-09-07T04:17:15;7.75;;;4.80;;
59418;SDS011;45224;50.904;6.038;2023-09-07T04:18:46;6.40;;;4.07;;
59418;SDS011;45224;50.904;6.038;2023-09-07T04:20:16;6.60;;;4.60;;
59418;SDS011;45224;50.904;6.038;2023-09-07T04:21:47;7.70;;;4.38;;
59418;SDS011;45224;50.904;6.038;2023-09-07T04:23:18;6.57;;;4.03;;
59418;SDS011;45224;50.904;6.038;2023-09-07T04:24:49;6.32;;;3.95;;
59418;SDS011;45224;50.904;6.038;2023-09-07T04:26:20;6.95;;;4.55;;
59418;SDS011;45224;50.904;6.038;2023-09-07T04:27:50;7.20;;;4.15;;
59418;SDS011;45224;50.904;6.038;2023-09-07T04:29:22;6.43;;;4.03;;
59418;SDS011;45224;50.904;6.038;2023-09-07T04:30:53;6.47;;;4.18;;
59418;SDS011;45224;50.904;6.038;2023-09-07T04:32:24;7.10;;;4.10;;
59418;SDS011;45224;50.904;6.038;2023-09-07T04:33:54;7.95;;;3.95;;
59418;SDS011;45224;50.904;6.038;2023-09-07T04:35:29;9.60;;;4.32;;
59418;SDS011;45224;50.904;6.038;2023-09-07T04:37:03;11.82;;;4.70;;
59418;SDS011;45224;50.904;6.038;2023-09-07T04:38:33;6.63;;;4.47;;
59418;SDS011;45224;50.904;6.038;2023-09-07T04:40:05;7.28;;;4.35;;
59418;SDS011;45224;50.904;6.038;2023-09-07T04:41:36;6.15;;;4.05;;
59418;SDS011;45224;50.904;6.038;2023-09-07T04:43:06;7.05;;;3.72;;
59418;SDS011;45224;50.904;6.038;2023-09-07T04:44:37;7.60;;;4.30;;
59418;SDS011;45224;50.904;6.038;2023-09-07T04:46:08;7.00;;;4.20;;
59418;SDS011;45224;50.904;6.038;2023-09-07T04:47:40;6.63;;;4.10;;
59418;SDS011;45224;50.904;6.038;2023-09-07T04:49:10;8.32;;;4.18;;
59418;SDS011;45224;50.904;6.038;2023-09-07T04:50:41;11.90;;;4.13;;
59418;SDS011;45224;50.904;6.038;2023-09-07T04:52:11;8.60;;;4.30;;
59418;SDS011;45224;50.904;6.038;2023-09-07T04:53:42;8.82;;;4.32;;
59418;SDS011;45224;50.904;6.038;2023-09-07T04:55:12;5.60;;;3.95;;
59418;SDS011;45224;50.904;6.038;2023-09-07T04:56:43;8.77;;;4.10;;
59418;SDS011;45224;50.904;6.038;2023-09-07T04:58:13;6.25;;;3.97;;
59418;SDS011;45224;50.904;6.038;2023-09-07T04:59:44;10.68;;;4.30;;
59418;SDS011;45224;50.904;6.038;2023-09-07T05:01:14;13.45;;;4.30;;
59418;SDS011;45224;50.904;6.038;2023-09-07T05:02:46;8.18;;;4.20;;
59418;SDS011;45224;50.904;6.038;2023-09-07T05:04:17;7.45;;;4.18;;
59418;SDS011;45224;50.904;6.038;2023-09-07T05:05:50;8.70;;;4.25;;
59418;SDS011;45224;50.904;6.038;2023-09-07T05:07:21;8.23;;;4.07;;
59418;SDS011;45224;50.904;6.038;2023-09-07T05:08:51;12.05;;;4.25;;
59418;SDS011;45224;50.904;6.038;2023-09-07T05:10:22;7.00;;;4.20;;
59418;SDS011;45224;50.904;6.038;2023-09-07T05:11:52;8.45;;;4.07;;
59418;SDS011;45224;50.904;6.038;2023-09-07T05:13:24;7.38;;;4.35;;
59418;SDS011;45224;50.904;6.038;2023-09-07T05:14:56;11.25;;;3.90;;
59418;SDS011;45224;50.904;6.038;2023-09-07T05:16:26;7.18;;;4.15;;
59418;SDS011;45224;50.904;6.038;2023-09-07T05:17:57;10.68;;;4.30;;
59418;SDS011;45224;50.904;6.038;2023-09-07T05:19:27;8.70;;;4.68;;
59418;SDS011;45224;50.904;6.038;2023-09-07T05:20:58;6.80;;;4.20;;
59418;SDS011;45224;50.904;6.038;2023-09-07T05:22:28;9.25;;;4.40;;
59418;SDS011;45224;50.904;6.038;2023-09-07T05:24:00;6.93;;;4.65;;
59418;SDS011;45224;50.904;6.038;2023-09-07T05:25:30;8.85;;;4.20;;
59418;SDS011;45224;50.904;6.038;2023-09-07T05:27:00;8.50;;;4.47;;
59418;SDS011;45224;50.904;6.038;2023-09-07T05:28:33;6.97;;;4.10;;
59418;SDS011;45224;50.904;6.038;2023-09-07T05:30:04;6.00;;;3.63;;
59418;SDS011;45224;50.904;6.038;2023-09-07T05:31:35;6.45;;;3.85;;
59418;SDS011;45224;50.904;6.038;2023-09-07T05:33:06;7.25;;;3.90;;
59418;SDS011;45224;50.904;6.038;2023-09-07T05:34:36;9.43;;;4.15;;
59418;SDS011;45224;50.904;6.038;2023-09-07T05:36:07;10.40;;;4.18;;
59418;SDS011;45224;50.904;6.038;2023-09-07T05:37:38;8.50;;;3.78;;
59418;SDS011;45224;50.904;6.038;2023-09-07T05:39:08;7.55;;;3.72;;
59418;SDS011;45224;50.904;6.038;2023-09-07T05:40:39;9.20;;;4.05;;
59418;SDS011;45224;50.904;6.038;2023-09-07T05:42:12;7.20;;;3.72;;
59418;SDS011;45224;50.904;6.038;2023-09-07T05:43:42;5.43;;;3.40;;
59418;SDS011;45224;50.904;6.038;2023-09-07T05:45:13;6.40;;;3.80;;
59418;SDS011;45224;50.904;6.038;2023-09-07T05:46:43;7.95;;;3.47;;
59418;SDS011;45224;50.904;6.038;2023-09-07T05:48:14;4.72;;;3.38;;
59418;SDS011;45224;50.904;6.038;2023-09-07T05:49:47;5.32;;;3.53;;
59418;SDS011;45224;50.904;6.038;2023-09-07T05:51:18;6.97;;;3.75;;
59418;SDS011;45224;50.904;6.038;2023-09-07T05:52:48;6.07;;;3.90;;
59418;SDS011;45224;50.904;6.038;2023-09-07T05:54:19;11.50;;;3.92;;
59418;SDS011;45224;50.904;6.038;2023-09-07T05:55:50;5.80;;;3.72;;
59418;SDS011;45224;50.904;6.038;2023-09-07T05:57:20;11.55;;;5.55;;
59418;SDS011;45224;50.904;6.038;2023-09-07T05:58:51;8.20;;;5.10;;
59418;SDS011;45224;50.904;6.038;2023-09-07T06:00:21;7.82;;;4.60;;
59418;SDS011;45224;50.904;6.038;2023-09-07T06:01:53;7.35;;;4.10;;
59418;SDS011;45224;50.904;6.038;2023-09-07T06:03:24;7.00;;;4.05;;
59418;SDS011;45224;50.904;6.038;2023-09-07T06:04:54;8.68;;;4.10;;
59418;SDS011;45224;50.904;6.038;2023-09-07T06:06:25;7.32;;;4.53;;
59418;SDS011;45224;50.904;6.038;2023-09-07T06:07:55;6.28;;;3.60;;
59418;SDS011;45224;50.904;6.038;2023-09-07T06:09:26;6.22;;;3.70;;
59418;SDS011;45224;50.904;6.038;2023-09-07T06:10:56;5.43;;;3.65;;
59418;SDS011;45224;50.904;6.038;2023-09-07T06:12:27;5.80;;;3.70;;
59418;SDS011;45224;50.904;6.038;2023-09-07T06:13:58;7.05;;;3.60;;
59418;SDS011;45224;50.904;6.038;2023-09-07T06:15:29;5.20;;;3.80;;
59418;SDS011;45224;50.904;6.038;2023-09-07T06:17:00;7.53;;;4.00;;
59418;SDS011;45224;50.904;6.038;2023-09-07T06:18:30;5.45;;;3.67;;
59418;SDS011;45224;50.904;6.038;2023-09-07T06:20:01;10.02;;;5.22;;
59418;SDS011;45224;50.904;6.038;2023-09-07T06:21:32;8.35;;;4.50;;
59418;SDS011;45224;50.904;6.038;2023-09-07T06:23:03;5.65;;;4.10;;
59418;SDS011;45224;50.904;6.038;2023-09-07T06:24:34;10.25;;;6.60;;
59418;SDS011;45224;50.904;6.038;2023-09-07T06:26:04;10.10;;;7.10;;
59418;SDS011;45224;50.904;6.038;2023-09-07T06:27:35;8.02;;;5.38;;
59418;SDS011;45224;50.904;6.038;2023-09-07T06:29:06;10.30;;;5.40;;
59418;SDS011;45224;50.904;6.038;2023-09-07T06:30:37;6.40;;;4.32;;
59418;SDS011;45224;50.904;6.038;2023-09-07T06:32:07;13.48;;;4.32;;
59418;SDS011;45224;50.904;6.038;2023-09-07T06:33:38;9.35;;;4.82;;
59418;SDS011;45224;50.904;6.038;2023-09-07T06:35:08;9.70;;;5.70;;
59418;SDS011;45224;50.904;6.038;2023-09-07T06:36:40;8.13;;;4.68;;
59418;SDS011;45224;50.904;6.038;2023-09-07T06:38:10;7.82;;;4.22;;
59418;SDS011;45224;50.904;6.038;2023-09-07T06:39:41;5.55;;;3.67;;
59418;SDS011;45224;50.904;6.038;2023-09-07T06:41:14;7.63;;;3.97;;
59418;SDS011;45224;50.904;6.038;2023-09-07T06:42:44;7.80;;;4.88;;
59418;SDS011;45224;50.904;6.038;2023-09-07T06:44:18;6.90;;;4.80;;
59418;SDS011;45224;50.904;6.038;2023-09-07T06:45:49;7.95;;;4.10;;
59418;SDS011;45224;50.904;6.038;2023-09-07T06:47:20;7.68;;;3.75;;
59418;SDS011;45224;50.904;6.038;2023-09-07T06:48:50;6.63;;;4.05;;
59418;SDS011;45224;50.904;6.038;2023-09-07T06:50:21;6.45;;;3.88;;
59418;SDS011;45224;50.904;6.038;2023-09-07T06:51:52;6.78;;;3.50;;
59418;SDS011;45224;50.904;6.038;2023-09-07T06:53:22;5.22;;;3.47;;
59418;SDS011;45224;50.904;6.038;2023-09-07T06:54:53;6.72;;;3.20;;
59418;SDS011;45224;50.904;6.038;2023-09-07T06:56:24;6.82;;;3.95;;
59418;SDS011;45224;50.904;6.038;2023-09-07T06:57:54;6.18;;;3.38;;
59418;SDS011;45224;50.904;6.038;2023-09-07T06:59:25;7.93;;;3.53;;
59418;SDS011;45224;50.904;6.038;2023-09-07T07:00:56;6.05;;;3.28;;
59418;SDS011;45224;50.904;6.038;2023-09-07T07:02:28;7.13;;;3.42;;
59418;SDS011;45224;50.904;6.038;2023-09-07T07:03:58;6.72;;;3.78;;
59418;SDS011;45224;50.904;6.038;2023-09-07T07:05:30;5.10;;;3.33;;
59418;SDS011;45224;50.904;6.038;2023-09-07T07:07:01;6.50;;;3.60;;
59418;SDS011;45224;50.904;6.038;2023-09-07T07:08:34;6.82;;;3.28;;
59418;SDS011;45224;50.904;6.038;2023-09-07T07:10:05;7.88;;;3.17;;
59418;SDS011;45224;50.904;6.038;2023-09-07T07:11:36;9.75;;;3.40;;
59418;SDS011;45224;50.904;6.038;2023-09-07T07:13:10;7.97;;;3.20;;
59418;SDS011;45224;50.904;6.038;2023-09-07T07:14:40;7.18;;;2.97;;
59418;SDS011;45224;50.904;6.038;2023-09-07T07:16:13;5.55;;;3.08;;
59418;SDS011;45224;50.904;6.038;2023-09-07T07:17:44;5.07;;;3.10;;
59418;SDS011;45224;50.904;6.038;2023-09-07T07:19:15;7.78;;;2.75;;
59418;SDS011;45224;50.904;6.038;2023-09-07T07:20:45;4.57;;;2.85;;
59418;SDS011;45224;50.904;6.038;2023-09-07T07:22:16;5.93;;;3.38;;
59418;SDS011;45224;50.904;6.038;2023-09-07T07:23:47;6.55;;;3.38;;
59418;SDS011;45224;50.904;6.038;2023-09-07T07:25:17;9.93;;;3.70;;
59418;SDS011;45224;50.904;6.038;2023-09-07T07:26:48;6.10;;;3.50;;
59418;SDS011;45224;50.904;6.038;2023-09-07T07:28:18;5.97;;;3.20;;
59418;SDS011;45224;50.904;6.038;2023-09-07T07:29:50;8.75;;;3.65;;
59418;SDS011;45224;50.904;6.038;2023-09-07T07:31:21;4.82;;;3.30;;
59418;SDS011;45224;50.904;6.038;2023-09-07T07:32:52;8.48;;;3.20;;
59418;SDS011;45224;50.904;6.038;2023-09-07T07:34:22;7.78;;;3.40;;
59418;SDS011;45224;50.904;6.038;2023-09-07T07:35:53;4.53;;;3.15;;
59418;SDS011;45224;50.904;6.038;2023-09-07T07:37:24;6.05;;;3.08;;
59418;SDS011;45224;50.904;6.038;2023-09-07T07:38:55;6.38;;;3.08;;
59418;SDS011;45224;50.904;6.038;2023-09-07T07:40:26;7.13;;;3.45;;
59418;SDS011;45224;50.904;6.038;2023-09-07T07:41:56;6.68;;;3.10;;
59418;SDS011;45224;50.904;6.038;2023-09-07T07:43:28;8.38;;;3.03;;
59418;SDS011;45224;50.904;6.038;2023-09-07T07:44:59;6.95;;;3.15;;
59418;SDS011;45224;50.904;6.038;2023-09-07T07:46:30;7.25;;;3.22;;
59418;SDS011;45224;50.904;6.038;2023-09-07T07:48:01;4.38;;;2.95;;
59418;SDS011;45224;50.904;6.038;2023-09-07T07:49:32;3.85;;;2.80;;
59418;SDS011;45224;50.904;6.038;2023-09-07T07:51:04;7.88;;;2.72;;
59418;SDS011;45224;50.904;6.038;2023-09-07T07:52:35;6.55;;;2.75;;
59418;SDS011;45224;50.904;6.038;2023-09-07T07:54:06;5.68;;;2.60;;
59418;SDS011;45224;50.904;6.038;2023-09-07T07:55:37;7.95;;;3.15;;
59418;SDS011;45224;50.904;6.038;2023-09-07T07:57:15;5.65;;;2.88;;
59418;SDS011;45224;50.904;6.038;2023-09-07T07:58:46;6.55;;;2.90;;
59418;SDS011;45224;50.904;6.038;2023-09-07T08:00:17;7.50;;;2.85;;
59418;SDS011;45224;50.904;6.038;2023-09-07T08:01:55;6.35;;;2.75;;
59418;SDS011;45224;50.904;6.038;2023-09-07T08:03:26;5.03;;;2.67;;
59418;SDS011;45224;50.904;6.038;2023-09-07T08:04:59;5.53;;;2.90;;
59418;SDS011;45224;50.904;6.038;2023-09-07T08:06:30;4.72;;;2.70;;
59418;SDS011;45224;50.904;6.038;2023-09-07T08:08:00;3.75;;;2.42;;
59418;SDS011;45224;50.904;6.038;2023-09-07T08:09:32;7.82;;;3.13;;
59418;SDS011;45224;50.904;6.038;2023-09-07T08:11:04;4.75;;;2.80;;
59418;SDS011;45224;50.904;6.038;2023-09-07T08:12:40;7.22;;;2.88;;
59418;SDS011;45224;50.904;6.038;2023-09-07T08:14:11;5.53;;;2.67;;
59418;SDS011;45224;50.904;6.038;2023-09-07T08:15:42;6.72;;;3.05;;
59418;SDS011;45224;50.904;6.038;2023-09-07T08:17:13;5.18;;;2.67;;
59418;SDS011;45224;50.904;6.038;2023-09-07T08:18:43;3.30;;;2.97;;
59418;SDS011;45224;50.904;6.038;2023-09-07T08:20:15;6.65;;;3.03;;
59418;SDS011;45224;50.904;6.038;2023-09-07T08:21:46;4.28;;;2.70;;
59418;SDS011;45224;50.904;6.038;2023-09-07T08:23:17;6.85;;;3.25;;
59418;SDS011;45224;50.904;6.038;2023-09-07T08:24:47;5.75;;;2.90;;
59418;SDS011;45224;50.904;6.038;2023-09-07T08:26:19;6.63;;;2.90;;
59418;SDS011;45224;50.904;6.038;2023-09-07T08:27:50;4.88;;;3.08;;
59418;SDS011;45224;50.904;6.038;2023-09-07T08:29:24;6.28;;;2.70;;
59418;SDS011;45224;50.904;6.038;2023-09-07T08:30:57;4.78;;;2.90;;
59418;SDS011;45224;50.904;6.038;2023-09-07T08:32:29;5.25;;;2.83;;
59418;SDS011;45224;50.904;6.038;2023-09-07T08:34:00;5.00;;;2.90;;
59418;SDS011;45224;50.904;6.038;2023-09-07T08:35:33;4.03;;;2.50;;
59418;SDS011;45224;50.904;6.038;2023-09-07T08:37:05;6.13;;;2.80;;
59418;SDS011;45224;50.904;6.038;2023-09-07T08:38:38;5.60;;;2.50;;
59418;SDS011;45224;50.904;6.038;2023-09-07T08:40:09;6.43;;;2.92;;
59418;SDS011;45224;50.904;6.038;2023-09-07T08:41:41;3.30;;;2.15;;
59418;SDS011;45224;50.904;6.038;2023-09-07T08:43:15;5.15;;;2.90;;
59418;SDS011;45224;50.904;6.038;2023-09-07T08:44:49;5.97;;;2.85;;
59418;SDS011;45224;50.904;6.038;2023-09-07T08:46:21;6.15;;;3.03;;
59418;SDS011;45224;50.904;6.038;2023-09-07T08:47:53;4.07;;;2.60;;
59418;SDS011;45224;50.904;6.038;2023-09-07T08:49:26;4.75;;;2.45;;
59418;SDS011;45224;50.904;6.038;2023-09-07T08:50:57;3.78;;;2.40;;
59418;SDS011;45224;50.904;6.038;2023-09-07T08:52:28;5.15;;;2.60;;
59418;SDS011;45224;50.904;6.038;2023-09-07T08:53:59;4.88;;;2.33;;
59418;SDS011;45224;50.904;6.038;2023-09-07T08:55:30;5.78;;;2.60;;
59418;SDS011;45224;50.904;6.038;2023-09-07T08:57:02;5.32;;;2.53;;
59418;SDS011;45224;50.904;6.038;2023-09-07T08:58:34;6.13;;;2.38;;
59418;SDS011;45224;50.904;6.038;2023-09-07T09:00:04;10.00;;;2.65;;
59418;SDS011;45224;50.904;6.038;2023-09-07T09:01:40;3.42;;;2.50;;
59418;SDS011;45224;50.904;6.038;2023-09-07T09:03:10;5.18;;;2.47;;
59418;SDS011;45224;50.904;6.038;2023-09-07T09:04:41;4.72;;;2.20;;
59418;SDS011;45224;50.904;6.038;2023-09-07T09:06:11;3.05;;;2.25;;
59418;SDS011;45224;50.904;6.038;2023-09-07T09:07:44;3.83;;;2.38;;